Time;durP1;ratioP1;P1;durP2;ratioP2;P2;SDS_P1;SDS_P2;PMS_P1;PMS_P2;Temp;Humidity;BMP_temperature;BMP_pressure;BME280_temperature;BME280_humidity;BME280_pressure;Samples;Min_cycle;Max_cycle;Signal;HPM_P1;HPM_P2
2022/01/07 00:00:43;;;;;;;6.13;2.93;;;-3.00;99.90;-4.30;100112;;;;538745;260;24114;-80
2022/01/07 00:03:10;;;;;;;5.97;3.13;;;-3.00;99.90;-4.40;100113;;;;543422;260;24152;-79
2022/01/07 00:05:41;;;;;;;5.97;3.60;;;-3.00;99.90;-4.40;100112;;;;551293;258;24149;-79
2022/01/07 00:08:06;;;;;;;3.93;3.17;;;-3.10;99.90;-4.40;100104;;;;550786;252;24155;-79
2022/01/07 00:10:35;;;;;;;4.27;2.97;;;-3.10;99.90;-4.40;100105;;;;543444;260;24141;-79
2022/01/07 00:13:06;;;;;;;5.77;2.67;;;-3.10;99.90;-4.40;100104;;;;551258;256;24170;-79
2022/01/07 00:15:31;;;;;;;7.37;2.58;;;-3.10;99.90;-4.40;100105;;;;546431;252;35523;-79
2022/01/07 00:17:59;;;;;;;5.70;2.07;;;-3.10;99.90;-4.40;100111;;;;538766;260;24187;-80
2022/01/07 00:20:27;;;;;;;2.10;1.43;;;-3.10;99.90;-4.50;100107;;;;538767;260;24138;-79
2022/01/07 00:22:55;;;;;;;4.30;2.70;;;-3.10;99.90;-4.50;100104;;;;543422;260;24195;-78
2022/01/07 00:25:23;;;;;;;3.27;2.57;;;-3.20;99.90;-4.40;100101;;;;538706;260;24107;-78
2022/01/07 00:27:51;;;;;;;7.20;2.93;;;-3.20;99.90;-4.40;100114;;;;543473;259;24109;-78
2022/01/07 00:30:18;;;;;;;5.63;2.60;;;-3.10;99.90;-4.30;100108;;;;543969;259;24099;-77
2022/01/07 00:32:46;;;;;;;6.40;2.90;;;-3.10;99.90;-4.30;100119;;;;552361;255;24114;-78
2022/01/07 00:35:14;;;;;;;8.20;3.33;;;-3.00;99.90;-4.30;100118;;;;552142;255;24164;-78
2022/01/07 00:37:42;;;;;;;4.17;3.00;;;-3.00;99.90;-4.20;100123;;;;544082;257;24117;-78
2022/01/07 00:40:10;;;;;;;6.03;3.10;;;-3.00;99.90;-4.20;100124;;;;544003;260;24129;-79
2022/01/07 00:42:38;;;;;;;10.03;3.17;;;-2.90;99.90;-4.20;100127;;;;543781;257;25339;-80
2022/01/07 00:45:06;;;;;;;8.87;2.83;;;-2.90;99.90;-4.10;100123;;;;539220;260;24108;-79
2022/01/07 00:47:34;;;;;;;6.60;3.00;;;-2.90;99.90;-4.10;100132;;;;551798;258;24104;-78
2022/01/07 00:50:02;;;;;;;6.27;2.97;;;-2.90;99.90;-4.10;100124;;;;551537;256;24119;-78
2022/01/07 00:52:30;;;;;;;5.77;2.83;;;-2.90;99.90;-4.10;100122;;;;543679;260;24119;-79
2022/01/07 00:54:58;;;;;;;6.47;3.00;;;-2.90;99.90;-4.10;100116;;;;538697;260;24187;-77
2022/01/07 00:57:29;;;;;;;6.43;3.20;;;-2.80;99.90;-4.10;100103;;;;551261;259;24167;-78
2022/01/07 00:59:58;;;;;;;8.10;3.80;;;-2.80;99.90;-4.10;100120;;;;551111;256;24128;-77
2022/01/07 01:02:24;;;;;;;8.17;3.40;;;-2.80;99.90;-4.10;100112;;;;550949;256;24190;-78
2022/01/07 01:04:52;;;;;;;6.63;3.00;;;-2.80;99.90;-4.10;100115;;;;538662;260;25148;-78
2022/01/07 01:07:19;;;;;;;4.67;3.37;;;-2.80;99.90;-4.20;100116;;;;538432;260;24140;-79
2022/01/07 01:09:47;;;;;;;9.27;2.97;;;-2.80;99.90;-4.20;100122;;;;551047;260;24120;-77
2022/01/07 01:12:15;;;;;;;7.33;3.43;;;-2.90;99.90;-4.10;100121;;;;550943;260;24109;-77
2022/01/07 01:14:43;;;;;;;6.97;2.97;;;-2.90;99.90;-4.10;100120;;;;533862;260;35496;-78
2022/01/07 01:17:15;;;;;;;8.20;1.83;;;-2.90;99.90;-4.20;100116;;;;534010;263;24083;-78
2022/01/07 01:19:39;;;;;;;3.13;1.57;;;-2.90;99.90;-4.10;100105;;;;550805;254;24125;-76
2022/01/07 01:22:11;;;;;;;5.20;2.50;;;-2.90;99.90;-4.20;100108;;;;538431;260;24140;-76
2022/01/07 01:24:36;;;;;;;4.67;3.20;;;-2.90;99.90;-4.10;100101;;;;540890;264;24150;-76
2022/01/07 01:27:06;;;;;;;3.83;2.12;;;-2.90;99.90;-4.10;100104;;;;546286;259;35482;-77
2022/01/07 01:29:32;;;;;;;3.27;2.10;;;-2.90;99.90;-4.20;100095;;;;550611;260;24125;-77
2022/01/07 01:31:59;;;;;;;1.57;0.90;;;-2.90;99.90;-4.10;100106;;;;538302;260;24157;-77
2022/01/07 01:34:31;;;;;;;4.17;1.70;;;-2.90;99.90;-4.10;100106;;;;550922;259;24156;-77
2022/01/07 01:36:55;;;;;;;8.53;2.97;;;-2.80;99.90;-4.10;100087;;;;528728;257;24183;-76
2022/01/07 01:39:23;;;;;;;4.73;2.77;;;-2.80;99.90;-4.10;100090;;;;533674;265;24089;-78
2022/01/07 01:41:54;;;;;;;6.70;3.47;;;-2.80;99.90;-4.10;100085;;;;543632;256;24118;-76
2022/01/07 01:44:19;;;;;;;7.10;3.10;;;-2.80;99.90;-4.20;100086;;;;539243;260;24120;-76
2022/01/07 01:46:48;;;;;;;6.10;2.80;;;-2.90;99.90;-4.20;100088;;;;551858;259;24129;-76
2022/01/07 01:49:16;;;;;;;8.17;2.53;;;-2.90;99.90;-4.20;100080;;;;539165;260;24155;-76
2022/01/07 01:51:47;;;;;;;5.13;2.77;;;-2.90;99.90;-4.20;100083;;;;543718;260;24155;-76
2022/01/07 01:54:12;;;;;;;6.60;2.70;;;-3.00;99.90;-4.30;100093;;;;543774;256;24178;-76
2022/01/07 01:56:41;;;;;;;7.63;2.57;;;-3.00;99.90;-4.40;100082;;;;543858;260;24199;-76
2022/01/07 01:59:08;;;;;;;5.03;2.57;;;-3.00;99.90;-4.40;100084;;;;543893;260;24115;-77
2022/01/07 02:01:36;;;;;;;8.67;2.83;;;-3.10;99.90;-4.50;100076;;;;551539;260;24113;-78
2022/01/07 02:04:07;;;;;;;6.78;2.55;;;-3.10;99.90;-4.50;100076;;;;534321;260;35508;-77
2022/01/07 02:06:35;;;;;;;5.25;2.55;;;-3.20;99.90;-4.50;100082;;;;538628;260;35426;-77
2022/01/07 02:09:00;;;;;;;3.33;1.60;;;-3.20;99.90;-4.50;100081;;;;551399;260;24145;-79
2022/01/07 02:11:27;;;;;;;4.90;1.30;;;-3.20;99.90;-4.60;100086;;;;551189;258;24153;-76
2022/01/07 02:13:58;;;;;;;1.33;1.10;;;-3.20;99.90;-4.60;100076;;;;538649;260;24160;-76
2022/01/07 02:16:26;;;;;;;10.07;3.07;;;-3.30;99.90;-4.60;100080;;;;538645;260;24141;-77
2022/01/07 02:18:57;;;;;;;7.73;2.30;;;-3.30;99.90;-4.60;100062;;;;543037;260;24124;-79
2022/01/07 02:21:25;;;;;;;3.47;2.30;;;-3.30;99.90;-4.70;100063;;;;542989;260;24198;-77
2022/01/07 02:23:50;;;;;;;5.93;2.30;;;-3.40;99.90;-4.70;100062;;;;533828;258;24115;-77
2022/01/07 02:26:18;;;;;;;3.65;1.70;;;-3.30;99.90;-4.70;100066;;;;538487;256;34612;-77
2022/01/07 02:28:45;;;;;;;4.23;1.80;;;-3.40;99.90;-4.60;100056;;;;542976;256;24154;-77
2022/01/07 02:31:14;;;;;;;4.40;1.50;;;-3.30;99.90;-4.70;100053;;;;542975;260;24120;-76
2022/01/07 02:33:43;;;;;;;6.97;2.50;;;-3.40;99.90;-4.70;100046;;;;538530;260;24099;-78
2022/01/07 02:36:14;;;;;;;4.57;2.27;;;-3.40;99.90;-4.70;100051;;;;538407;260;24162;-77
2022/01/07 02:38:39;;;;;;;6.90;2.43;;;-3.40;99.90;-4.70;100047;;;;543003;260;24136;-77
2022/01/07 02:41:07;;;;;;;6.30;2.10;;;-3.40;99.90;-4.70;100070;;;;538450;260;24177;-77
2022/01/07 02:43:37;;;;;;;2.87;1.90;;;-3.40;99.90;-4.70;100054;;;;538799;260;24146;-77
2022/01/07 02:46:05;;;;;;;3.47;2.10;;;-3.40;99.90;-4.70;100049;;;;550910;255;24194;-76
2022/01/07 02:48:30;;;;;;;6.70;1.80;;;-3.40;99.90;-4.70;100050;;;;543032;260;25156;-77
2022/01/07 02:50:58;;;;;;;5.13;1.80;;;-3.40;99.90;-4.60;100049;;;;538557;260;24176;-76
2022/01/07 02:53:27;;;;;;;4.20;1.87;;;-3.30;99.90;-4.60;100052;;;;551896;258;24138;-77
2022/01/07 02:55:56;;;;;;;6.17;1.90;;;-3.30;99.90;-4.50;100054;;;;539958;260;24118;-77
2022/01/07 02:58:23;;;;;;;5.17;2.00;;;-3.30;99.90;-4.50;100048;;;;544249;260;24099;-77
2022/01/07 03:00:51;;;;;;;5.03;2.07;;;-3.20;99.90;-4.40;100049;;;;539521;260;24166;-77
2022/01/07 03:03:19;;;;;;;3.73;1.90;;;-3.10;99.90;-4.40;100043;;;;551809;259;24123;-77
2022/01/07 03:05:47;;;;;;;4.97;1.90;;;-3.10;99.90;-4.40;100050;;;;539245;260;24122;-77
2022/01/07 03:08:15;;;;;;;6.63;1.97;;;-3.10;99.90;-4.30;100040;;;;538984;260;24155;-77
2022/01/07 03:10:43;;;;;;;3.03;1.60;;;-3.10;99.90;-4.30;100039;;;;551426;259;24101;-77
2022/01/07 03:13:15;;;;;;;6.30;2.30;;;-3.00;99.90;-4.30;100037;;;;551118;253;24113;-78
2022/01/07 03:15:39;;;;;;;3.17;1.70;;;-3.00;99.90;-4.20;100045;;;;543264;256;24145;-77
2022/01/07 03:18:07;;;;;;;7.17;2.73;;;-3.00;99.90;-4.20;100034;;;;543300;260;24187;-78
2022/01/07 03:20:38;;;;;;;5.77;2.57;;;-2.90;99.90;-4.10;100035;;;;543201;260;25147;-78
2022/01/07 03:23:03;;;;;;;9.30;3.73;;;-2.80;99.90;-4.10;100023;;;;551015;260;24199;-77
2022/01/07 03:25:31;;;;;;;6.17;3.57;;;-2.80;99.90;-4.10;100019;;;;538769;260;24098;-77
2022/01/07 03:27:58;;;;;;;10.60;5.10;;;-2.80;99.90;-4.10;100022;;;;538660;260;24166;-77
2022/01/07 03:30:26;;;;;;;5.93;5.17;;;-2.80;99.90;-4.10;100022;;;;538367;260;24136;-78
2022/01/07 03:32:54;;;;;;;8.17;5.87;;;-2.80;99.90;-4.10;100016;;;;538445;260;24129;-76
2022/01/07 03:35:22;;;;;;;13.43;5.70;;;-2.80;99.90;-4.00;100024;;;;538365;260;24113;-77
2022/01/07 03:37:54;;;;;;;10.60;4.70;;;-2.80;99.90;-4.10;100028;;;;551016;258;24142;-76
2022/01/07 03:40:19;;;;;;;19.60;6.33;;;-2.80;99.90;-4.10;100026;;;;550858;253;24132;-76
2022/01/07 03:42:46;;;;;;;7.67;4.53;;;-2.80;99.90;-4.10;100027;;;;543306;260;24117;-76
2022/01/07 03:45:17;;;;;;;14.07;4.90;;;-2.80;99.90;-4.10;100028;;;;550992;256;24178;-77
2022/01/07 03:47:42;;;;;;;11.50;4.63;;;-2.80;99.90;-4.10;100019;;;;542783;260;24209;-77
2022/01/07 03:50:10;;;;;;;6.30;4.00;;;-2.80;99.90;-4.10;100023;;;;550830;256;24155;-76
2022/01/07 03:52:38;;;;;;;9.13;3.97;;;-2.80;99.90;-4.10;100013;;;;543037;260;24124;-77
2022/01/07 03:55:06;;;;;;;10.13;4.00;;;-2.80;99.90;-4.10;100018;;;;551326;258;24127;-77
2022/01/07 03:57:36;;;;;;;10.63;4.73;;;-2.80;99.90;-4.10;100019;;;;551228;256;24158;-77
2022/01/07 04:00:02;;;;;;;11.27;4.40;;;-2.90;99.90;-4.20;100014;;;;551182;260;24195;-78
2022/01/07 04:02:30;;;;;;;9.40;4.87;;;-2.90;99.90;-4.20;100021;;;;538755;260;24123;-77
2022/01/07 04:04:58;;;;;;;8.43;4.20;;;-2.90;99.90;-4.20;100022;;;;539287;259;24129;-76
2022/01/07 04:07:30;;;;;;;4.97;3.60;;;-2.90;99.90;-4.20;100026;;;;539795;260;24168;-77
2022/01/07 04:09:55;;;;;;;5.20;3.97;;;-3.00;99.90;-4.20;100030;;;;551614;255;24168;-76
2022/01/07 04:12:22;;;;;;;11.33;5.13;;;-3.00;99.90;-4.20;100012;;;;539476;260;24116;-76
2022/01/07 04:15:00;;;;;;;11.17;5.17;;;-3.00;99.90;-4.20;100019;;;;551367;259;24179;-77
2022/01/07 04:17:18;;;;;;;14.37;5.20;;;-3.00;99.90;-4.20;100016;;;;550725;253;24143;-77
2022/01/07 04:19:46;;;;;;;7.30;4.70;;;-3.00;99.90;-4.20;100008;;;;539144;260;24120;-77
2022/01/07 04:22:14;;;;;;;14.20;5.30;;;-3.00;99.90;-4.30;100002;;;;539025;260;24123;-78
2022/01/07 04:24:42;;;;;;;12.90;5.10;;;-3.00;99.90;-4.30;100001;;;;538896;260;25485;-77
2022/01/07 04:27:10;;;;;;;12.27;6.10;;;-3.00;99.90;-4.30;99998;;;;534047;260;35464;-76
2022/01/07 04:29:38;;;;;;;7.90;3.60;;;-3.10;99.90;-4.30;100003;;;;551331;259;24142;-77
2022/01/07 04:32:09;;;;;;;6.43;3.77;;;-3.10;99.90;-4.30;100021;;;;551267;259;24218;-77
2022/01/07 04:34:34;;;;;;;16.27;4.97;;;-3.10;99.90;-4.30;100015;;;;550846;259;24213;-77
2022/01/07 04:37:02;;;;;;;10.37;5.60;;;-3.10;99.90;-4.40;100013;;;;538768;260;24128;-77
2022/01/07 04:39:30;;;;;;;8.43;5.00;;;-3.10;99.90;-4.40;100008;;;;538684;260;24134;-77
2022/01/07 04:41:59;;;;;;;10.77;5.10;;;-3.10;99.90;-4.30;100022;;;;538765;260;24158;-78
2022/01/07 04:44:28;;;;;;;8.97;5.07;;;-3.10;99.90;-4.30;100015;;;;538309;260;24109;-77
2022/01/07 04:46:54;;;;;;;11.60;5.50;;;-3.10;99.90;-4.40;100008;;;;538280;260;24122;-79
2022/01/07 04:49:23;;;;;;;10.93;5.63;;;-3.10;99.90;-4.40;100011;;;;538518;260;24183;-79
2022/01/07 04:51:51;;;;;;;14.30;5.60;;;-3.10;99.90;-4.40;100003;;;;538481;260;24172;-78
2022/01/07 04:54:19;;;;;;;10.13;5.90;;;-3.10;99.90;-4.40;100013;;;;538820;260;24166;-77
2022/01/07 04:56:47;;;;;;;10.43;5.93;;;-3.10;99.90;-4.40;100001;;;;538873;260;24193;-78
2022/01/07 04:59:15;;;;;;;12.27;6.47;;;-3.10;99.90;-4.30;100014;;;;538761;260;24141;-77
2022/01/07 05:01:43;;;;;;;12.87;6.37;;;-3.00;99.90;-4.20;100007;;;;538636;260;24132;-78
2022/01/07 05:04:11;;;;;;;13.63;7.17;;;-2.90;99.90;-4.10;100007;;;;538820;260;24108;-78
2022/01/07 05:06:45;;;;;;;11.97;7.37;;;-2.80;99.90;-4.00;100007;;;;551336;260;24200;-78
2022/01/07 05:09:15;;;;;;;16.67;7.20;;;-2.70;99.90;-3.90;100007;;;;538363;260;24126;-78
2022/01/07 05:11:40;;;;;;;9.47;6.60;;;-2.60;99.90;-3.80;100009;;;;543056;258;26458;-78
2022/01/07 05:14:12;;;;;;;11.13;6.77;;;-2.50;99.90;-3.70;100007;;;;550989;258;24172;-79
2022/01/07 05:16:36;;;;;;;10.13;6.57;;;-2.40;99.90;-3.60;100021;;;;543562;254;24195;-78
2022/01/07 05:19:04;;;;;;;14.60;6.50;;;-2.40;99.90;-3.60;100007;;;;544555;260;24097;-78
2022/01/07 05:21:32;;;;;;;11.23;6.53;;;-2.30;99.90;-3.60;100009;;;;539641;260;24124;-79
2022/01/07 05:24:00;;;;;;;12.50;7.00;;;-2.30;99.90;-3.70;100007;;;;544133;260;24103;-78
2022/01/07 05:26:28;;;;;;;11.57;6.27;;;-2.40;99.90;-3.70;100004;;;;539385;260;24104;-79
2022/01/07 05:28:56;;;;;;;16.40;6.83;;;-2.40;99.90;-3.80;100007;;;;539292;260;24120;-79
2022/01/07 05:31:24;;;;;;;10.47;6.57;;;-2.50;99.90;-3.90;100007;;;;543914;260;24148;-77
2022/01/07 05:33:52;;;;;;;8.97;5.47;;;-2.50;99.90;-3.90;100009;;;;543800;260;25221;-79
2022/01/07 05:36:20;;;;;;;12.20;6.50;;;-2.60;99.90;-4.00;100006;;;;543668;260;24201;-78
2022/01/07 05:38:48;;;;;;;11.53;5.80;;;-2.70;99.90;-4.00;100006;;;;551502;259;24113;-78
2022/01/07 05:41:16;;;;;;;12.27;6.07;;;-2.80;99.90;-4.10;100000;;;;551623;259;24130;-78
2022/01/07 05:43:49;;;;;;;10.20;6.57;;;-2.80;99.90;-4.10;99998;;;;551475;253;24137;-77
2022/01/07 05:46:15;;;;;;;10.00;6.57;;;-2.80;99.90;-4.20;100005;;;;551230;260;24191;-76
2022/01/07 05:48:42;;;;;;;9.27;6.07;;;-2.90;99.90;-4.20;100004;;;;543665;260;24193;-76
2022/01/07 05:51:12;;;;;;;10.40;5.25;;;-2.90;99.90;-4.30;100001;;;;546474;260;35507;-76
2022/01/07 05:53:37;;;;;;;4.77;3.50;;;-2.90;99.90;-4.30;100012;;;;541882;260;25149;-76
2022/01/07 05:56:05;;;;;;;3.77;3.03;;;-3.00;99.90;-4.40;100006;;;;543135;256;24149;-77
2022/01/07 05:58:37;;;;;;;9.70;4.13;;;-3.00;99.90;-4.40;99999;;;;550969;260;24145;-77
2022/01/07 06:01:01;;;;;;;11.20;5.20;;;-3.10;99.90;-4.40;100010;;;;550602;255;24122;-76
2022/01/07 06:03:29;;;;;;;13.27;5.63;;;-3.10;99.90;-4.40;100000;;;;538374;260;24152;-77
2022/01/07 06:05:57;;;;;;;6.97;5.23;;;-3.00;99.90;-4.40;100000;;;;538562;260;24164;-77
2022/01/07 06:08:25;;;;;;;14.83;5.63;;;-3.10;99.90;-4.40;100007;;;;538564;260;24125;-77
2022/01/07 06:10:54;;;;;;;10.30;5.50;;;-3.10;99.90;-4.40;100000;;;;538724;260;24141;-76
2022/01/07 06:13:25;;;;;;;11.43;5.43;;;-3.10;99.90;-4.40;100001;;;;538768;260;24119;-77
2022/01/07 06:15:50;;;;;;;10.60;5.63;;;-3.10;99.90;-4.40;99988;;;;543330;260;25159;-79
2022/01/07 06:18:18;;;;;;;10.73;4.90;;;-3.10;99.90;-4.40;99989;;;;550924;260;24115;-78
2022/01/07 06:20:50;;;;;;;14.20;5.07;;;-3.10;99.90;-4.50;99990;;;;543032;260;24125;-78
2022/01/07 06:23:16;;;;;;;11.27;5.70;;;-3.20;99.90;-4.40;100001;;;;543119;257;24133;-77
2022/01/07 06:25:44;;;;;;;9.63;5.50;;;-3.10;99.90;-4.40;99992;;;;538330;260;24203;-77
2022/01/07 06:28:10;;;;;;;9.50;5.13;;;-3.10;99.90;-4.40;99998;;;;538983;259;24138;-77
2022/01/07 06:30:38;;;;;;;10.10;5.67;;;-3.10;99.90;-4.30;99995;;;;552137;259;24119;-77
2022/01/07 06:33:06;;;;;;;11.13;5.27;;;-3.00;99.90;-4.30;100000;;;;551812;252;24128;-78
2022/01/07 06:35:34;;;;;;;11.53;4.63;;;-3.00;99.90;-4.20;100008;;;;539209;260;24118;-80
2022/01/07 06:38:02;;;;;;;9.73;5.13;;;-2.90;99.90;-4.10;99998;;;;538967;260;24159;-80
2022/01/07 06:40:31;;;;;;;8.77;4.60;;;-2.80;99.90;-4.10;100008;;;;534291;260;35459;-79
2022/01/07 06:42:59;;;;;;;6.10;3.67;;;-2.70;99.90;-4.00;100004;;;;543608;260;24117;-80
2022/01/07 06:45:27;;;;;;;4.33;2.77;;;-2.70;99.90;-3.90;100009;;;;538804;260;24132;-79
2022/01/07 06:47:55;;;;;;;8.50;2.67;;;-2.60;99.90;-3.90;100005;;;;538710;260;24114;-78
2022/01/07 06:50:23;;;;;;;6.77;2.93;;;-2.60;99.90;-3.80;100002;;;;538650;260;24167;-79
2022/01/07 06:52:51;;;;;;;12.82;5.90;;;-2.50;99.90;-3.70;100002;;;;534043;260;35417;-79
2022/01/07 06:55:20;;;;;;;12.03;4.10;;;-2.50;99.90;-3.70;100017;;;;539035;260;24203;-77
2022/01/07 06:57:47;;;;;;;10.30;3.70;;;-2.40;99.90;-3.60;100012;;;;539001;260;24224;-79
2022/01/07 07:00:15;;;;;;;6.27;3.50;;;-2.40;99.90;-3.60;100017;;;;551514;255;25139;-78
2022/01/07 07:02:43;;;;;;;11.70;3.70;;;-2.30;99.90;-3.50;100008;;;;539017;260;24128;-77
2022/01/07 07:05:11;;;;;;;7.60;3.47;;;-2.20;99.90;-3.50;100009;;;;538854;257;24170;-77
2022/01/07 07:07:39;;;;;;;3.73;3.17;;;-2.20;99.90;-3.40;100009;;;;538588;260;24125;-79
2022/01/07 07:10:06;;;;;;;5.43;2.97;;;-2.20;99.90;-3.40;100017;;;;538952;260;24108;-78
2022/01/07 07:12:35;;;;;;;9.57;4.13;;;-2.10;99.90;-3.40;100017;;;;538718;260;24166;-79
2022/01/07 07:15:06;;;;;;;6.50;3.97;;;-2.10;99.90;-3.30;100019;;;;538802;260;24115;-78
2022/01/07 07:17:31;;;;;;;6.73;3.80;;;-2.10;99.90;-3.30;100016;;;;551226;255;24201;-78
2022/01/07 07:20:00;;;;;;;6.50;3.33;;;-2.00;99.90;-3.20;100016;;;;550816;260;24168;-79
2022/01/07 07:22:28;;;;;;;16.57;3.83;;;-2.00;99.90;-3.20;100008;;;;538404;260;24243;-79
2022/01/07 07:24:56;;;;;;;7.07;4.00;;;-2.00;99.90;-3.20;100011;;;;538360;260;24197;-79
2022/01/07 07:27:23;;;;;;;12.73;5.10;;;-1.90;99.90;-3.10;100011;;;;538493;260;24113;-78
2022/01/07 07:29:51;;;;;;;8.77;4.57;;;-1.90;99.90;-3.10;100008;;;;542970;260;24188;-78
2022/01/07 07:32:25;;;;;;;9.77;5.07;;;-1.80;99.90;-3.00;100008;;;;538306;260;24112;-76
2022/01/07 07:36:26;;;;;;;10.43;4.10;;;-1.80;99.90;-3.00;100008;;;;538509;260;24146;-78
2022/01/07 07:37:30;;;;;;;8.93;4.67;;;-1.70;99.90;-2.90;100002;;;;549313;256;24128;-76
2022/01/07 07:40:00;;;;;;;7.17;4.73;;;-1.60;99.90;-2.90;100005;;;;539193;259;24146;-76
2022/01/07 07:42:28;;;;;;;7.50;4.40;;;-1.60;99.90;-2.80;100007;;;;539435;260;24207;-77
2022/01/07 07:44:56;;;;;;;10.13;4.80;;;-1.60;99.90;-2.70;100002;;;;539295;260;24116;-77
2022/01/07 07:47:27;;;;;;;7.23;4.07;;;-1.50;99.90;-2.60;100000;;;;539108;260;24173;-78
2022/01/07 07:49:52;;;;;;;15.43;5.50;;;-1.40;99.90;-2.50;100007;;;;551647;254;24182;-76
2022/01/07 07:52:19;;;;;;;8.73;4.53;;;-1.30;99.90;-2.40;100003;;;;539038;260;24127;-77
2022/01/07 07:54:47;;;;;;;13.20;5.80;;;-1.20;99.90;-2.30;100006;;;;539264;260;24126;-77
2022/01/07 07:57:15;;;;;;;5.13;4.03;;;-1.10;99.90;-2.30;100009;;;;539227;260;24151;-76
2022/01/07 07:59:43;;;;;;;10.40;5.20;;;-1.00;99.90;-2.20;100011;;;;538998;260;24124;-76
2022/01/07 08:02:11;;;;;;;10.13;4.67;;;-1.00;99.90;-2.10;100020;;;;539018;260;24150;-77
2022/01/07 08:04:39;;;;;;;9.50;3.97;;;-0.90;99.90;-2.00;100016;;;;543274;260;24133;-76
2022/01/07 08:07:09;;;;;;;11.63;5.50;;;-0.70;99.90;-1.90;100012;;;;543245;260;24179;-76
2022/01/07 08:09:39;;;;;;;16.73;5.37;;;-0.60;99.90;-1.80;100010;;;;538719;260;24145;-77
2022/01/07 08:12:16;;;;;;;7.87;4.83;;;-0.70;99.90;-1.70;100008;;;;538662;260;24160;-77
2022/01/07 08:17:19;;;;;;;8.93;5.47;;;-0.40;99.90;-1.60;100008;;;;550957;258;24148;-76
2022/01/07 08:19:47;;;;;;;6.50;4.27;;;-0.40;99.90;-1.60;100009;;;;538527;260;24109;-76
2022/01/07 08:22:15;;;;;;;13.40;5.27;;;-0.40;99.90;-1.60;100009;;;;550856;258;24274;-77
2022/01/07 08:24:43;;;;;;;13.33;5.60;;;-0.30;99.90;-1.50;100011;;;;543127;260;24117;-77
2022/01/07 08:27:11;;;;;;;6.30;3.57;;;-0.30;99.90;-1.50;100017;;;;538495;260;24111;-77
2022/01/07 08:29:41;;;;;;;6.67;4.33;;;-0.20;99.90;-1.50;100014;;;;538461;258;24171;-76
2022/01/07 08:34:53;;;;;;;16.83;5.47;;;-0.20;99.90;-1.40;100012;;;;551235;260;24124;-76
2022/01/07 08:37:27;;;;;;;10.17;5.10;;;-0.20;99.90;-1.40;100007;;;;538388;260;24125;-77
2022/01/07 08:39:53;;;;;;;16.03;6.27;;;-0.20;99.90;-1.30;100008;;;;543232;260;24114;-76
2022/01/07 08:42:23;;;;;;;15.17;5.33;;;0.00;99.90;-1.20;100004;;;;538453;260;25172;-76
2022/01/07 08:44:54;;;;;;;16.43;5.43;;;0.00;99.90;-1.10;99998;;;;543000;260;24196;-76
2022/01/07 08:47:19;;;;;;;8.20;3.77;;;0.10;99.90;-1.00;99995;;;;550829;255;24213;-76
2022/01/07 08:49:47;;;;;;;12.27;4.97;;;0.20;99.90;-1.00;100003;;;;542987;254;24155;-77
2022/01/07 08:52:16;;;;;;;10.33;4.70;;;0.30;99.90;-0.90;100003;;;;544131;259;24108;-77
2022/01/07 08:54:44;;;;;;;14.77;4.80;;;0.30;99.90;-0.90;100002;;;;539423;260;24131;-77
2022/01/07 08:57:12;;;;;;;7.63;4.50;;;0.30;99.90;-0.80;100005;;;;539468;260;24127;-77
2022/01/07 08:59:40;;;;;;;10.63;4.47;;;0.40;99.90;-0.70;100013;;;;552008;259;24097;-77
2022/01/07 09:02:08;;;;;;;8.57;4.70;;;0.40;99.90;-0.70;100013;;;;539262;260;24145;-78
2022/01/07 09:04:36;;;;;;;8.57;4.27;;;0.50;99.90;-0.50;100011;;;;539202;260;24132;-76
2022/01/07 09:07:07;;;;;;;8.27;4.90;;;0.60;99.90;-0.50;100004;;;;539186;260;24198;-76
2022/01/07 09:09:33;;;;;;;19.13;5.77;;;0.80;99.90;-0.40;100012;;;;551449;256;24187;-76
2022/01/07 09:12:00;;;;;;;13.57;6.47;;;0.80;99.90;-0.30;100011;;;;538936;260;24188;-76
2022/01/07 09:14:28;;;;;;;14.47;5.83;;;0.90;99.90;-0.20;100005;;;;538985;260;24156;-76
2022/01/07 09:16:56;;;;;;;15.07;6.47;;;1.00;99.90;-0.20;99992;;;;538992;260;24140;-77
2022/01/07 09:19:25;;;;;;;14.40;7.10;;;1.00;99.90;-0.10;100005;;;;538984;260;24131;-77
2022/01/07 09:21:52;;;;;;;15.40;6.43;;;1.10;99.90;-0.10;100013;;;;538965;260;24130;-77
2022/01/07 09:24:20;;;;;;;14.07;6.27;;;1.10;99.90;0.00;99997;;;;551145;260;24132;-77
2022/01/07 09:26:48;;;;;;;18.87;5.80;;;1.20;99.90;0.00;100008;;;;538755;260;24123;-76
2022/01/07 09:29:16;;;;;;;11.80;5.87;;;1.20;99.90;0.10;99998;;;;538567;260;24166;-76
2022/01/07 09:31:44;;;;;;;10.40;5.20;;;1.30;99.90;0.20;100005;;;;538370;260;24108;-76
2022/01/07 09:34:15;;;;;;;10.60;5.30;;;1.40;99.90;0.20;99996;;;;538531;260;24159;-77
2022/01/07 09:36:40;;;;;;;14.60;7.20;;;1.40;99.90;0.30;99999;;;;550401;260;24140;-78
2022/01/07 09:39:10;;;;;;;11.07;5.60;;;1.50;99.90;0.40;100005;;;;538453;260;24113;-80
2022/01/07 09:41:35;;;;;;;10.23;5.87;;;1.60;99.90;0.50;99996;;;;550807;252;24113;-78
2022/01/07 09:44:06;;;;;;;9.33;5.43;;;1.60;99.90;0.50;100002;;;;538343;260;24156;-78
2022/01/07 09:46:31;;;;;;;13.90;7.03;;;1.70;99.90;0.60;99996;;;;542969;260;24118;-78
2022/01/07 09:48:59;;;;;;;17.13;6.77;;;1.80;99.90;0.60;99996;;;;543086;260;24110;-76
2022/01/07 09:51:28;;;;;;;11.23;7.03;;;1.80;99.90;0.80;100000;;;;543190;260;24180;-78
2022/01/07 09:53:56;;;;;;;19.27;7.30;;;2.00;99.90;0.80;99993;;;;538533;260;24148;-78
2022/01/07 09:56:24;;;;;;;13.70;5.67;;;2.00;99.90;0.90;100002;;;;538807;260;24109;-78
2022/01/07 09:58:51;;;;;;;16.97;7.93;;;2.20;99.90;0.90;100002;;;;538750;260;24183;-77
2022/01/07 10:01:21;;;;;;;17.60;6.20;;;2.10;99.90;1.00;99988;;;;538728;260;24103;-78
2022/01/07 10:03:47;;;;;;;19.43;7.43;;;2.20;99.90;1.00;99988;;;;539730;259;24156;-77
2022/01/07 10:06:27;;;;;;;13.50;8.10;;;2.20;99.90;1.00;99992;;;;539801;260;24127;-77
2022/01/07 10:09:16;;;;;;;21.63;8.27;;;2.30;99.90;1.10;99987;;;;539191;260;24178;-78
2022/01/07 10:11:37;;;;;;;25.98;12.40;;;2.30;99.90;1.00;99989;;;;538249;260;35477;-77
2022/01/07 10:14:17;;;;;;;21.60;9.67;;;2.30;99.90;0.90;99991;;;;551406;255;24125;-78
2022/01/07 10:16:50;;;;;;;26.47;9.30;;;2.20;99.90;0.80;99987;;;;551038;256;24127;-78
2022/01/07 10:19:42;;;;;;;19.37;9.30;;;2.10;99.90;0.80;99973;;;;550851;256;24132;-78
2022/01/07 10:22:10;;;;;;;19.83;8.57;;;2.10;99.90;0.80;99978;;;;543554;260;24121;-78
2022/01/07 10:24:57;;;;;;;19.53;9.63;;;2.10;99.90;0.80;99976;;;;543066;260;24125;-78
2022/01/07 10:27:28;;;;;;;16.47;8.40;;;2.00;99.90;0.90;99980;;;;543622;260;24119;-78
2022/01/07 10:29:53;;;;;;;15.40;8.00;;;2.10;99.90;0.90;99983;;;;543458;260;24106;-77
2022/01/07 10:32:23;;;;;;;11.50;6.30;;;2.10;99.90;0.90;99980;;;;551591;253;24113;-77
2022/01/07 10:35:13;;;;;;;11.70;7.10;;;2.10;99.90;1.00;99979;;;;539007;260;24601;-78
2022/01/07 10:37:55;;;;;;;15.33;7.20;;;2.20;99.90;1.00;99985;;;;551282;256;24163;-79
2022/01/07 10:40:38;;;;;;;12.73;7.80;;;2.20;99.90;1.00;99979;;;;538629;260;24131;-78
2022/01/07 10:43:15;;;;;;;18.83;8.07;;;2.30;99.90;1.10;99983;;;;543420;260;24161;-79
2022/01/07 10:45:43;;;;;;;26.30;8.50;;;2.20;99.90;1.10;99990;;;;538769;260;24166;-78
2022/01/07 10:48:11;;;;;;;21.07;9.67;;;2.30;99.90;1.10;99992;;;;543367;260;24131;-78
2022/01/07 10:50:42;;;;;;;19.07;8.40;;;2.30;99.90;1.10;99992;;;;543387;260;24161;-79
2022/01/07 10:53:24;;;;;;;22.33;8.87;;;2.30;99.90;1.10;99988;;;;551279;260;25247;-78
2022/01/07 10:56:10;;;;;;;12.80;7.97;;;2.20;99.90;1.00;99983;;;;538761;260;24123;-79
2022/01/07 10:58:44;;;;;;;16.10;7.97;;;2.20;99.90;1.00;99978;;;;551284;255;24226;-79
2022/01/07 11:01:21;;;;;;;15.70;8.93;;;2.20;99.90;1.00;99972;;;;543159;260;24120;-79
2022/01/07 11:03:49;;;;;;;23.37;9.40;;;2.20;99.90;0.90;99970;;;;543449;260;24164;-78
2022/01/07 11:06:21;;;;;;;24.87;9.00;;;2.10;99.90;0.90;99969;;;;538598;260;24176;-78
2022/01/07 11:08:45;;;;;;;17.83;7.87;;;2.10;99.90;0.90;99971;;;;543209;260;24134;-78
2022/01/07 11:11:12;;;;;;;20.73;7.90;;;2.10;99.90;0.80;99967;;;;538761;260;24112;-78
2022/01/07 11:13:41;;;;;;;16.47;7.80;;;2.00;99.90;0.90;99961;;;;551452;258;25219;-76
2022/01/07 11:16:09;;;;;;;21.53;8.80;;;2.00;99.90;0.80;99961;;;;544948;259;24119;-79
2022/01/07 11:18:40;;;;;;;16.33;8.80;;;2.00;99.90;0.80;99967;;;;544511;260;24117;-78
2022/01/07 11:21:06;;;;;;;15.83;7.90;;;2.00;99.90;0.80;99966;;;;544245;260;24175;-78